sensor_id;sensor_type;location;lat;lon;timestamp;P1;durP1;ratioP1;P2;durP2;ratioP2
41755;SDS011;27435;48.480;9.258;2022-07-29T00:01:07;8.48;;;5.72;;
41755;SDS011;27435;48.480;9.258;2022-07-29T00:03:32;9.77;;;5.75;;
41755;SDS011;27435;48.480;9.258;2022-07-29T00:05:58;6.50;;;5.38;;
41755;SDS011;27435;48.480;9.258;2022-07-29T00:08:23;7.43;;;5.32;;
41755;SDS011;27435;48.480;9.258;2022-07-29T00:10:49;6.40;;;5.18;;
41755;SDS011;27435;48.480;9.258;2022-07-29T00:13:15;7.05;;;5.15;;
41755;SDS011;27435;48.480;9.258;2022-07-29T00:15:40;9.07;;;5.32;;
41755;SDS011;27435;48.480;9.258;2022-07-29T00:18:06;9.07;;;4.90;;
41755;SDS011;27435;48.480;9.258;2022-07-29T00:20:32;7.40;;;4.75;;
41755;SDS011;27435;48.480;9.258;2022-07-29T00:22:57;12.70;;;5.50;;
41755;SDS011;27435;48.480;9.258;2022-07-29T00:25:23;8.57;;;5.30;;
41755;SDS011;27435;48.480;9.258;2022-07-29T00:27:49;6.18;;;4.80;;
41755;SDS011;27435;48.480;9.258;2022-07-29T00:30:14;9.85;;;5.20;;
41755;SDS011;27435;48.480;9.258;2022-07-29T00:32:40;9.45;;;4.90;;
41755;SDS011;27435;48.480;9.258;2022-07-29T00:35:06;7.30;;;4.93;;
41755;SDS011;27435;48.480;9.258;2022-07-29T00:37:51;8.97;;;5.17;;
41755;SDS011;27435;48.480;9.258;2022-07-29T00:40:16;6.78;;;5.13;;
41755;SDS011;27435;48.480;9.258;2022-07-29T00:42:45;6.70;;;5.22;;
41755;SDS011;27435;48.480;9.258;2022-07-29T00:45:13;6.95;;;5.22;;
41755;SDS011;27435;48.480;9.258;2022-07-29T00:47:40;7.88;;;4.82;;
41755;SDS011;27435;48.480;9.258;2022-07-29T00:50:07;5.70;;;4.55;;
41755;SDS011;27435;48.480;9.258;2022-07-29T00:52:37;6.10;;;4.68;;
41755;SDS011;27435;48.480;9.258;2022-07-29T00:55:04;8.02;;;4.90;;
41755;SDS011;27435;48.480;9.258;2022-07-29T00:57:31;8.23;;;4.35;;
41755;SDS011;27435;48.480;9.258;2022-07-29T00:59:58;10.40;;;4.90;;
41755;SDS011;27435;48.480;9.258;2022-07-29T01:02:24;7.18;;;4.75;;
41755;SDS011;27435;48.480;9.258;2022-07-29T01:04:49;5.88;;;4.57;;
41755;SDS011;27435;48.480;9.258;2022-07-29T01:07:16;7.53;;;4.72;;
41755;SDS011;27435;48.480;9.258;2022-07-29T01:09:42;6.72;;;4.65;;
41755;SDS011;27435;48.480;9.258;2022-07-29T01:12:11;6.72;;;4.60;;
41755;SDS011;27435;48.480;9.258;2022-07-29T01:14:41;6.38;;;4.78;;
41755;SDS011;27435;48.480;9.258;2022-07-29T01:17:12;8.00;;;4.93;;
41755;SDS011;27435;48.480;9.258;2022-07-29T01:22:44;8.23;;;5.05;;
41755;SDS011;27435;48.480;9.258;2022-07-29T01:28:40;6.85;;;4.70;;
41755;SDS011;27435;48.480;9.258;2022-07-29T01:31:28;7.50;;;5.38;;
41755;SDS011;27435;48.480;9.258;2022-07-29T01:34:01;7.32;;;5.40;;
41755;SDS011;27435;48.480;9.258;2022-07-29T01:39:31;8.60;;;5.60;;
41755;SDS011;27435;48.480;9.258;2022-07-29T01:42:18;10.68;;;6.10;;
41755;SDS011;27435;48.480;9.258;2022-07-29T01:44:56;10.00;;;6.15;;
41755;SDS011;27435;48.480;9.258;2022-07-29T01:47:32;8.82;;;6.47;;
41755;SDS011;27435;48.480;9.258;2022-07-29T01:50:02;8.75;;;6.60;;
41755;SDS011;27435;48.480;9.258;2022-07-29T01:52:36;8.43;;;6.50;;
41755;SDS011;27435;48.480;9.258;2022-07-29T01:55:09;8.50;;;6.82;;
41755;SDS011;27435;48.480;9.258;2022-07-29T01:57:38;7.40;;;5.95;;
41755;SDS011;27435;48.480;9.258;2022-07-29T02:00:07;11.70;;;7.15;;
41755;SDS011;27435;48.480;9.258;2022-07-29T02:02:33;11.88;;;7.70;;
41755;SDS011;27435;48.480;9.258;2022-07-29T02:05:02;10.38;;;7.38;;
41755;SDS011;27435;48.480;9.258;2022-07-29T02:07:32;10.48;;;6.95;;
41755;SDS011;27435;48.480;9.258;2022-07-29T02:10:00;8.35;;;6.60;;
41755;SDS011;27435;48.480;9.258;2022-07-29T02:12:28;10.27;;;7.38;;
41755;SDS011;27435;48.480;9.258;2022-07-29T02:14:56;11.25;;;7.68;;
41755;SDS011;27435;48.480;9.258;2022-07-29T02:17:49;10.40;;;7.22;;
41755;SDS011;27435;48.480;9.258;2022-07-29T02:20:16;10.85;;;6.68;;
41755;SDS011;27435;48.480;9.258;2022-07-29T02:22:42;9.27;;;6.35;;
41755;SDS011;27435;48.480;9.258;2022-07-29T02:25:10;10.40;;;7.22;;
41755;SDS011;27435;48.480;9.258;2022-07-29T02:27:37;11.90;;;7.00;;
41755;SDS011;27435;48.480;9.258;2022-07-29T02:30:04;9.35;;;7.55;;
41755;SDS011;27435;48.480;9.258;2022-07-29T02:32:31;11.35;;;7.30;;
41755;SDS011;27435;48.480;9.258;2022-07-29T02:35:00;12.05;;;7.05;;
41755;SDS011;27435;48.480;9.258;2022-07-29T02:37:27;7.95;;;6.57;;
41755;SDS011;27435;48.480;9.258;2022-07-29T02:39:54;9.77;;;7.40;;
41755;SDS011;27435;48.480;9.258;2022-07-29T02:42:23;9.60;;;7.22;;
41755;SDS011;27435;48.480;9.258;2022-07-29T02:44:51;10.88;;;5.95;;
41755;SDS011;27435;48.480;9.258;2022-07-29T02:47:24;6.50;;;5.45;;
41755;SDS011;27435;48.480;9.258;2022-07-29T02:50:09;7.72;;;5.70;;
41755;SDS011;27435;48.480;9.258;2022-07-29T02:52:43;6.60;;;5.13;;
41755;SDS011;27435;48.480;9.258;2022-07-29T02:57:41;8.40;;;5.22;;
41755;SDS011;27435;48.480;9.258;2022-07-29T03:00:09;7.82;;;5.05;;
41755;SDS011;27435;48.480;9.258;2022-07-29T03:02:44;7.53;;;5.60;;
41755;SDS011;27435;48.480;9.258;2022-07-29T03:05:16;8.52;;;5.03;;
41755;SDS011;27435;48.480;9.258;2022-07-29T03:07:49;9.05;;;5.97;;
41755;SDS011;27435;48.480;9.258;2022-07-29T03:10:19;6.68;;;5.40;;
41755;SDS011;27435;48.480;9.258;2022-07-29T03:12:45;8.13;;;5.18;;
41755;SDS011;27435;48.480;9.258;2022-07-29T03:15:12;8.57;;;5.45;;
41755;SDS011;27435;48.480;9.258;2022-07-29T03:17:38;7.50;;;5.40;;
41755;SDS011;27435;48.480;9.258;2022-07-29T03:20:06;7.93;;;4.88;;
41755;SDS011;27435;48.480;9.258;2022-07-29T03:22:32;5.88;;;4.32;;
41755;SDS011;27435;48.480;9.258;2022-07-29T03:25:06;7.65;;;5.07;;
41755;SDS011;27435;48.480;9.258;2022-07-29T03:27:33;7.13;;;4.95;;
41755;SDS011;27435;48.480;9.258;2022-07-29T03:29:59;6.80;;;4.43;;
41755;SDS011;27435;48.480;9.258;2022-07-29T03:32:25;9.07;;;4.80;;
41755;SDS011;27435;48.480;9.258;2022-07-29T03:34:50;7.32;;;4.22;;
41755;SDS011;27435;48.480;9.258;2022-07-29T03:37:16;6.45;;;4.72;;
41755;SDS011;27435;48.480;9.258;2022-07-29T03:39:41;7.43;;;4.90;;
41755;SDS011;27435;48.480;9.258;2022-07-29T03:42:10;6.20;;;4.70;;
41755;SDS011;27435;48.480;9.258;2022-07-29T03:44:39;6.55;;;4.30;;
41755;SDS011;27435;48.480;9.258;2022-07-29T03:47:07;9.65;;;4.35;;
41755;SDS011;27435;48.480;9.258;2022-07-29T03:49:36;6.50;;;4.47;;
41755;SDS011;27435;48.480;9.258;2022-07-29T03:52:03;6.82;;;4.55;;
41755;SDS011;27435;48.480;9.258;2022-07-29T03:54:30;6.85;;;4.45;;
41755;SDS011;27435;48.480;9.258;2022-07-29T03:56:55;8.73;;;4.75;;
41755;SDS011;27435;48.480;9.258;2022-07-29T03:59:26;5.35;;;3.92;;
41755;SDS011;27435;48.480;9.258;2022-07-29T04:01:52;8.80;;;5.05;;
41755;SDS011;27435;48.480;9.258;2022-07-29T04:04:18;8.00;;;4.63;;
41755;SDS011;27435;48.480;9.258;2022-07-29T04:06:45;6.22;;;4.03;;
41755;SDS011;27435;48.480;9.258;2022-07-29T04:09:11;8.50;;;5.03;;
41755;SDS011;27435;48.480;9.258;2022-07-29T04:11:38;5.35;;;3.88;;
41755;SDS011;27435;48.480;9.258;2022-07-29T04:14:04;7.13;;;4.13;;
41755;SDS011;27435;48.480;9.258;2022-07-29T04:16:30;4.45;;;3.58;;
41755;SDS011;27435;48.480;9.258;2022-07-29T04:18:56;5.97;;;3.42;;
41755;SDS011;27435;48.480;9.258;2022-07-29T04:21:22;7.53;;;3.58;;
41755;SDS011;27435;48.480;9.258;2022-07-29T04:23:48;5.55;;;3.78;;
41755;SDS011;27435;48.480;9.258;2022-07-29T04:26:17;5.80;;;3.55;;
41755;SDS011;27435;48.480;9.258;2022-07-29T04:28:50;7.03;;;3.38;;
41755;SDS011;27435;48.480;9.258;2022-07-29T04:31:16;5.28;;;3.42;;
41755;SDS011;27435;48.480;9.258;2022-07-29T04:33:41;7.13;;;4.18;;
41755;SDS011;27435;48.480;9.258;2022-07-29T04:36:07;5.07;;;3.10;;
41755;SDS011;27435;48.480;9.258;2022-07-29T04:38:33;7.45;;;3.58;;
41755;SDS011;27435;48.480;9.258;2022-07-29T04:40:58;5.25;;;3.50;;
41755;SDS011;27435;48.480;9.258;2022-07-29T04:43:24;6.18;;;3.88;;
41755;SDS011;27435;48.480;9.258;2022-07-29T04:45:50;6.63;;;3.75;;
41755;SDS011;27435;48.480;9.258;2022-07-29T04:48:15;5.53;;;3.58;;
41755;SDS011;27435;48.480;9.258;2022-07-29T04:50:41;6.20;;;3.17;;
41755;SDS011;27435;48.480;9.258;2022-07-29T04:53:07;6.22;;;3.05;;
41755;SDS011;27435;48.480;9.258;2022-07-29T04:55:33;8.52;;;3.42;;
41755;SDS011;27435;48.480;9.258;2022-07-29T04:57:58;5.05;;;3.53;;
41755;SDS011;27435;48.480;9.258;2022-07-29T05:00:24;6.72;;;3.33;;
41755;SDS011;27435;48.480;9.258;2022-07-29T05:02:50;5.93;;;3.17;;
41755;SDS011;27435;48.480;9.258;2022-07-29T05:05:15;3.95;;;2.72;;
41755;SDS011;27435;48.480;9.258;2022-07-29T05:07:41;4.43;;;2.75;;
41755;SDS011;27435;48.480;9.258;2022-07-29T05:10:07;5.32;;;3.60;;
41755;SDS011;27435;48.480;9.258;2022-07-29T05:12:33;4.50;;;3.05;;
41755;SDS011;27435;48.480;9.258;2022-07-29T05:14:59;7.60;;;3.15;;
41755;SDS011;27435;48.480;9.258;2022-07-29T05:17:25;7.28;;;3.40;;
41755;SDS011;27435;48.480;9.258;2022-07-29T05:19:51;6.97;;;3.20;;
41755;SDS011;27435;48.480;9.258;2022-07-29T05:22:20;5.32;;;3.20;;
41755;SDS011;27435;48.480;9.258;2022-07-29T05:24:46;5.80;;;3.47;;
41755;SDS011;27435;48.480;9.258;2022-07-29T05:27:12;5.70;;;3.40;;
41755;SDS011;27435;48.480;9.258;2022-07-29T05:29:38;7.32;;;3.33;;
41755;SDS011;27435;48.480;9.258;2022-07-29T05:32:04;4.95;;;3.28;;
41755;SDS011;27435;48.480;9.258;2022-07-29T05:34:30;6.95;;;3.17;;
41755;SDS011;27435;48.480;9.258;2022-07-29T05:36:56;5.32;;;3.40;;
41755;SDS011;27435;48.480;9.258;2022-07-29T05:39:23;8.50;;;3.00;;
41755;SDS011;27435;48.480;9.258;2022-07-29T05:41:49;8.15;;;3.35;;
41755;SDS011;27435;48.480;9.258;2022-07-29T05:44:15;7.35;;;3.20;;
41755;SDS011;27435;48.480;9.258;2022-07-29T05:46:40;5.05;;;3.25;;
41755;SDS011;27435;48.480;9.258;2022-07-29T05:49:06;6.45;;;3.38;;
41755;SDS011;27435;48.480;9.258;2022-07-29T05:51:35;6.72;;;3.20;;
41755;SDS011;27435;48.480;9.258;2022-07-29T05:54:01;6.47;;;3.47;;
41755;SDS011;27435;48.480;9.258;2022-07-29T05:56:27;4.32;;;3.10;;
41755;SDS011;27435;48.480;9.258;2022-07-29T05:58:53;5.35;;;3.50;;
41755;SDS011;27435;48.480;9.258;2022-07-29T06:01:18;6.07;;;3.45;;
41755;SDS011;27435;48.480;9.258;2022-07-29T06:03:45;6.15;;;3.83;;
41755;SDS011;27435;48.480;9.258;2022-07-29T06:06:10;5.97;;;3.58;;
41755;SDS011;27435;48.480;9.258;2022-07-29T06:08:36;5.43;;;3.63;;
41755;SDS011;27435;48.480;9.258;2022-07-29T06:11:03;5.72;;;3.70;;
41755;SDS011;27435;48.480;9.258;2022-07-29T06:13:29;10.52;;;4.00;;
41755;SDS011;27435;48.480;9.258;2022-07-29T06:15:55;5.22;;;3.45;;
41755;SDS011;27435;48.480;9.258;2022-07-29T06:18:21;5.00;;;3.65;;
41755;SDS011;27435;48.480;9.258;2022-07-29T06:20:49;7.22;;;3.22;;
41755;SDS011;27435;48.480;9.258;2022-07-29T06:23:15;6.55;;;3.42;;
41755;SDS011;27435;48.480;9.258;2022-07-29T06:25:41;7.70;;;2.92;;
41755;SDS011;27435;48.480;9.258;2022-07-29T06:28:07;10.07;;;3.03;;
41755;SDS011;27435;48.480;9.258;2022-07-29T06:30:33;8.88;;;2.38;;
41755;SDS011;27435;48.480;9.258;2022-07-29T06:32:58;4.30;;;2.65;;
41755;SDS011;27435;48.480;9.258;2022-07-29T06:35:25;9.70;;;2.28;;
41755;SDS011;27435;48.480;9.258;2022-07-29T06:37:51;6.10;;;2.60;;
41755;SDS011;27435;48.480;9.258;2022-07-29T06:40:17;3.03;;;2.22;;
41755;SDS011;27435;48.480;9.258;2022-07-29T06:43:01;9.07;;;2.47;;
41755;SDS011;27435;48.480;9.258;2022-07-29T06:45:27;3.58;;;2.05;;
41755;SDS011;27435;48.480;9.258;2022-07-29T06:47:52;3.50;;;1.75;;
41755;SDS011;27435;48.480;9.258;2022-07-29T06:50:18;4.22;;;1.90;;
41755;SDS011;27435;48.480;9.258;2022-07-29T06:52:44;3.10;;;1.80;;
41755;SDS011;27435;48.480;9.258;2022-07-29T06:55:09;5.25;;;2.00;;
41755;SDS011;27435;48.480;9.258;2022-07-29T06:57:35;6.15;;;2.22;;
41755;SDS011;27435;48.480;9.258;2022-07-29T07:00:01;4.13;;;1.80;;
41755;SDS011;27435;48.480;9.258;2022-07-29T07:02:29;4.18;;;1.95;;
41755;SDS011;27435;48.480;9.258;2022-07-29T07:04:55;4.18;;;1.90;;
41755;SDS011;27435;48.480;9.258;2022-07-29T07:07:20;3.50;;;1.90;;
41755;SDS011;27435;48.480;9.258;2022-07-29T07:09:46;3.58;;;1.83;;
41755;SDS011;27435;48.480;9.258;2022-07-29T07:12:11;5.95;;;2.15;;
41755;SDS011;27435;48.480;9.258;2022-07-29T07:14:37;6.22;;;2.10;;
41755;SDS011;27435;48.480;9.258;2022-07-29T07:17:04;3.92;;;1.90;;
41755;SDS011;27435;48.480;9.258;2022-07-29T07:19:31;5.18;;;2.00;;
41755;SDS011;27435;48.480;9.258;2022-07-29T07:21:57;4.32;;;1.92;;
41755;SDS011;27435;48.480;9.258;2022-07-29T07:24:23;6.07;;;2.10;;
41755;SDS011;27435;48.480;9.258;2022-07-29T07:26:48;5.43;;;2.10;;
41755;SDS011;27435;48.480;9.258;2022-07-29T07:29:14;4.30;;;1.90;;
41755;SDS011;27435;48.480;9.258;2022-07-29T07:31:40;3.65;;;1.95;;
41755;SDS011;27435;48.480;9.258;2022-07-29T07:34:05;4.70;;;2.10;;
41755;SDS011;27435;48.480;9.258;2022-07-29T07:36:31;5.55;;;2.50;;
41755;SDS011;27435;48.480;9.258;2022-07-29T07:38:56;5.85;;;2.67;;
41755;SDS011;27435;48.480;9.258;2022-07-29T07:41:22;4.07;;;1.92;;
41755;SDS011;27435;48.480;9.258;2022-07-29T07:43:48;3.88;;;1.90;;
41755;SDS011;27435;48.480;9.258;2022-07-29T07:46:14;3.60;;;2.25;;
41755;SDS011;27435;48.480;9.258;2022-07-29T07:48:40;6.22;;;2.45;;
41755;SDS011;27435;48.480;9.258;2022-07-29T07:51:06;6.05;;;2.42;;
41755;SDS011;27435;48.480;9.258;2022-07-29T07:53:32;3.13;;;2.00;;
41755;SDS011;27435;48.480;9.258;2022-07-29T07:55:58;5.15;;;2.15;;
41755;SDS011;27435;48.480;9.258;2022-07-29T07:58:24;6.93;;;2.17;;
41755;SDS011;27435;48.480;9.258;2022-07-29T08:00:49;6.55;;;2.70;;
41755;SDS011;27435;48.480;9.258;2022-07-29T08:03:15;5.05;;;2.20;;
41755;SDS011;27435;48.480;9.258;2022-07-29T08:05:41;6.60;;;2.30;;
41755;SDS011;27435;48.480;9.258;2022-07-29T08:08:06;6.78;;;1.90;;
41755;SDS011;27435;48.480;9.258;2022-07-29T08:10:32;7.45;;;2.30;;
41755;SDS011;27435;48.480;9.258;2022-07-29T08:13:17;3.53;;;2.20;;
41755;SDS011;27435;48.480;9.258;2022-07-29T08:15:43;5.70;;;2.25;;
41755;SDS011;27435;48.480;9.258;2022-07-29T08:18:10;5.18;;;2.10;;
41755;SDS011;27435;48.480;9.258;2022-07-29T08:20:37;3.28;;;2.10;;
41755;SDS011;27435;48.480;9.258;2022-07-29T08:23:04;6.45;;;2.28;;
41755;SDS011;27435;48.480;9.258;2022-07-29T08:25:32;6.85;;;2.17;;
41755;SDS011;27435;48.480;9.258;2022-07-29T08:27:58;6.22;;;2.10;;
41755;SDS011;27435;48.480;9.258;2022-07-29T08:30:24;7.40;;;1.92;;
41755;SDS011;27435;48.480;9.258;2022-07-29T08:32:50;6.82;;;2.22;;
41755;SDS011;27435;48.480;9.258;2022-07-29T08:35:18;7.80;;;2.30;;
41755;SDS011;27435;48.480;9.258;2022-07-29T08:37:44;9.35;;;2.50;;
41755;SDS011;27435;48.480;9.258;2022-07-29T08:40:10;5.32;;;2.30;;
41755;SDS011;27435;48.480;9.258;2022-07-29T08:42:36;4.25;;;2.35;;
41755;SDS011;27435;48.480;9.258;2022-07-29T08:45:02;3.75;;;1.90;;
41755;SDS011;27435;48.480;9.258;2022-07-29T08:47:29;4.95;;;2.10;;
41755;SDS011;27435;48.480;9.258;2022-07-29T08:49:55;5.75;;;2.20;;
41755;SDS011;27435;48.480;9.258;2022-07-29T08:52:20;4.95;;;2.13;;
41755;SDS011;27435;48.480;9.258;2022-07-29T08:54:49;6.30;;;1.90;;
41755;SDS011;27435;48.480;9.258;2022-07-29T08:57:17;7.00;;;2.05;;
41755;SDS011;27435;48.480;9.258;2022-07-29T08:59:44;4.15;;;1.90;;
41755;SDS011;27435;48.480;9.258;2022-07-29T09:02:18;2.80;;;1.70;;
41755;SDS011;27435;48.480;9.258;2022-07-29T09:04:45;4.78;;;2.00;;
41755;SDS011;27435;48.480;9.258;2022-07-29T09:07:17;4.13;;;2.00;;
41755;SDS011;27435;48.480;9.258;2022-07-29T09:12:12;5.07;;;2.13;;
41755;SDS011;27435;48.480;9.258;2022-07-29T09:14:38;3.50;;;2.20;;
41755;SDS011;27435;48.480;9.258;2022-07-29T09:17:05;5.05;;;2.00;;
41755;SDS011;27435;48.480;9.258;2022-07-29T09:19:32;6.57;;;2.40;;
41755;SDS011;27435;48.480;9.258;2022-07-29T09:22:03;6.07;;;2.35;;
41755;SDS011;27435;48.480;9.258;2022-07-29T09:27:02;5.40;;;1.98;;
41755;SDS011;27435;48.480;9.258;2022-07-29T09:32:30;5.75;;;2.45;;
41755;SDS011;27435;48.480;9.258;2022-07-29T09:37:41;5.70;;;1.90;;
41755;SDS011;27435;48.480;9.258;2022-07-29T09:40:27;5.93;;;2.20;;
41755;SDS011;27435;48.480;9.258;2022-07-29T09:42:53;8.93;;;3.25;;
41755;SDS011;27435;48.480;9.258;2022-07-29T09:45:32;4.70;;;2.08;;
41755;SDS011;27435;48.480;9.258;2022-07-29T09:47:58;6.43;;;2.33;;
41755;SDS011;27435;48.480;9.258;2022-07-29T09:50:34;8.25;;;2.20;;
41755;SDS011;27435;48.480;9.258;2022-07-29T09:53:01;4.40;;;1.98;;
41755;SDS011;27435;48.480;9.258;2022-07-29T09:55:27;10.15;;;2.35;;
41755;SDS011;27435;48.480;9.258;2022-07-29T09:57:52;5.68;;;2.20;;
41755;SDS011;27435;48.480;9.258;2022-07-29T10:00:19;6.07;;;2.30;;
41755;SDS011;27435;48.480;9.258;2022-07-29T10:02:47;6.25;;;2.47;;
41755;SDS011;27435;48.480;9.258;2022-07-29T10:05:20;4.95;;;2.10;;
41755;SDS011;27435;48.480;9.258;2022-07-29T10:07:49;4.28;;;2.60;;
41755;SDS011;27435;48.480;9.258;2022-07-29T10:12:52;4.32;;;2.30;;
41755;SDS011;27435;48.480;9.258;2022-07-29T10:15:20;4.57;;;2.50;;
41755;SDS011;27435;48.480;9.258;2022-07-29T10:17:51;3.97;;;2.60;;
41755;SDS011;27435;48.480;9.258;2022-07-29T10:20:18;5.47;;;2.90;;
41755;SDS011;27435;48.480;9.258;2022-07-29T10:22:45;12.55;;;2.85;;
41755;SDS011;27435;48.480;9.258;2022-07-29T10:25:12;8.23;;;2.70;;
41755;SDS011;27435;48.480;9.258;2022-07-29T10:27:39;8.07;;;2.80;;
41755;SDS011;27435;48.480;9.258;2022-07-29T10:30:05;7.15;;;2.88;;
41755;SDS011;27435;48.480;9.258;2022-07-29T10:35:12;6.00;;;2.65;;
41755;SDS011;27435;48.480;9.258;2022-07-29T10:40:52;5.03;;;2.50;;
41755;SDS011;27435;48.480;9.258;2022-07-29T10:43:41;5.25;;;2.60;;
41755;SDS011;27435;48.480;9.258;2022-07-29T10:46:11;6.28;;;2.58;;
41755;SDS011;27435;48.480;9.258;2022-07-29T10:57:13;5.57;;;2.67;;
41755;SDS011;27435;48.480;9.258;2022-07-29T10:59:39;13.73;;;2.85;;
41755;SDS011;27435;48.480;9.258;2022-07-29T11:07:22;7.72;;;2.75;;
41755;SDS011;27435;48.480;9.258;2022-07-29T11:10:33;5.07;;;2.40;;
41755;SDS011;27435;48.480;9.258;2022-07-29T11:15:02;6.57;;;2.90;;
41755;SDS011;27435;48.480;9.258;2022-07-29T11:18:16;5.90;;;2.20;;
41755;SDS011;27435;48.480;9.258;2022-07-29T11:20:43;6.88;;;2.33;;
41755;SDS011;27435;48.480;9.258;2022-07-29T11:23:18;8.40;;;2.28;;
41755;SDS011;27435;48.480;9.258;2022-07-29T11:31:42;4.95;;;2.00;;
41755;SDS011;27435;48.480;9.258;2022-07-29T11:34:23;4.18;;;2.15;;
41755;SDS011;27435;48.480;9.258;2022-07-29T11:39:41;5.78;;;2.40;;
41755;SDS011;27435;48.480;9.258;2022-07-29T11:47:24;4.18;;;2.25;;
41755;SDS011;27435;48.480;9.258;2022-07-29T11:49:52;3.08;;;2.00;;
41755;SDS011;27435;48.480;9.258;2022-07-29T11:52:19;7.30;;;2.50;;
41755;SDS011;27435;48.480;9.258;2022-07-29T11:54:49;4.82;;;2.58;;
41755;SDS011;27435;48.480;9.258;2022-07-29T11:57:16;4.70;;;2.58;;
41755;SDS011;27435;48.480;9.258;2022-07-29T11:59:43;5.30;;;2.70;;
41755;SDS011;27435;48.480;9.258;2022-07-29T12:02:11;5.75;;;2.58;;
41755;SDS011;27435;48.480;9.258;2022-07-29T12:04:53;4.10;;;2.80;;
41755;SDS011;27435;48.480;9.258;2022-07-29T12:07:31;7.07;;;2.97;;
41755;SDS011;27435;48.480;9.258;2022-07-29T12:10:01;5.50;;;3.33;;
41755;SDS011;27435;48.480;9.258;2022-07-29T12:12:38;4.20;;;3.00;;
41755;SDS011;27435;48.480;9.258;2022-07-29T12:15:11;6.03;;;3.35;;
41755;SDS011;27435;48.480;9.258;2022-07-29T12:17:37;6.50;;;3.08;;
41755;SDS011;27435;48.480;9.258;2022-07-29T12:20:04;8.82;;;3.30;;
41755;SDS011;27435;48.480;9.258;2022-07-29T12:22:34;6.90;;;3.53;;
41755;SDS011;27435;48.480;9.258;2022-07-29T12:25:07;6.35;;;3.00;;
41755;SDS011;27435;48.480;9.258;2022-07-29T12:27:39;6.88;;;2.95;;
41755;SDS011;27435;48.480;9.258;2022-07-29T12:30:05;5.60;;;3.05;;
41755;SDS011;27435;48.480;9.258;2022-07-29T12:32:41;8.27;;;2.83;;
41755;SDS011;27435;48.480;9.258;2022-07-29T12:35:12;4.63;;;2.70;;
41755;SDS011;27435;48.480;9.258;2022-07-29T12:37:42;5.60;;;2.63;;
41755;SDS011;27435;48.480;9.258;2022-07-29T12:40:10;5.65;;;3.15;;
41755;SDS011;27435;48.480;9.258;2022-07-29T12:42:38;8.48;;;3.70;;
41755;SDS011;27435;48.480;9.258;2022-07-29T12:45:04;6.70;;;3.92;;
41755;SDS011;27435;48.480;9.258;2022-07-29T12:47:31;11.15;;;5.82;;
41755;SDS011;27435;48.480;9.258;2022-07-29T12:52:43;9.75;;;6.65;;
41755;SDS011;27435;48.480;9.258;2022-07-29T12:55:11;10.15;;;4.78;;
41755;SDS011;27435;48.480;9.258;2022-07-29T12:57:46;7.80;;;5.40;;
41755;SDS011;27435;48.480;9.258;2022-07-29T13:00:13;11.57;;;6.93;;
41755;SDS011;27435;48.480;9.258;2022-07-29T13:02:41;8.45;;;6.30;;
41755;SDS011;27435;48.480;9.258;2022-07-29T13:05:08;8.77;;;6.35;;
41755;SDS011;27435;48.480;9.258;2022-07-29T13:07:35;9.15;;;6.60;;
41755;SDS011;27435;48.480;9.258;2022-07-29T13:10:12;11.07;;;6.55;;
41755;SDS011;27435;48.480;9.258;2022-07-29T13:15:31;11.57;;;4.93;;
41755;SDS011;27435;48.480;9.258;2022-07-29T13:17:57;6.32;;;3.78;;
41755;SDS011;27435;48.480;9.258;2022-07-29T13:20:24;6.40;;;3.65;;
41755;SDS011;27435;48.480;9.258;2022-07-29T13:22:52;6.95;;;3.53;;
41755;SDS011;27435;48.480;9.258;2022-07-29T13:25:31;6.57;;;4.30;;
41755;SDS011;27435;48.480;9.258;2022-07-29T13:27:58;4.63;;;3.63;;
41755;SDS011;27435;48.480;9.258;2022-07-29T13:30:26;5.82;;;4.05;;
41755;SDS011;27435;48.480;9.258;2022-07-29T13:32:52;6.80;;;3.90;;
41755;SDS011;27435;48.480;9.258;2022-07-29T13:35:18;7.45;;;3.70;;
41755;SDS011;27435;48.480;9.258;2022-07-29T13:37:45;4.00;;;3.50;;
41755;SDS011;27435;48.480;9.258;2022-07-29T13:40:11;5.60;;;3.53;;
41755;SDS011;27435;48.480;9.258;2022-07-29T13:42:37;10.00;;;3.72;;
41755;SDS011;27435;48.480;9.258;2022-07-29T13:45:04;7.47;;;3.67;;
41755;SDS011;27435;48.480;9.258;2022-07-29T13:47:31;7.68;;;4.40;;
41755;SDS011;27435;48.480;9.258;2022-07-29T13:49:57;4.75;;;3.10;;
41755;SDS011;27435;48.480;9.258;2022-07-29T13:52:23;4.88;;;2.78;;
41755;SDS011;27435;48.480;9.258;2022-07-29T13:54:48;5.05;;;3.10;;
41755;SDS011;27435;48.480;9.258;2022-07-29T13:57:14;6.20;;;3.25;;
41755;SDS011;27435;48.480;9.258;2022-07-29T13:59:41;5.82;;;2.70;;
41755;SDS011;27435;48.480;9.258;2022-07-29T14:02:07;4.63;;;2.60;;
41755;SDS011;27435;48.480;9.258;2022-07-29T14:04:36;8.20;;;2.40;;
41755;SDS011;27435;48.480;9.258;2022-07-29T14:07:02;4.50;;;3.08;;
41755;SDS011;27435;48.480;9.258;2022-07-29T14:09:28;6.45;;;2.80;;
41755;SDS011;27435;48.480;9.258;2022-07-29T14:11:55;5.15;;;2.55;;
41755;SDS011;27435;48.480;9.258;2022-07-29T14:14:21;3.50;;;2.25;;
41755;SDS011;27435;48.480;9.258;2022-07-29T14:16:46;4.05;;;2.20;;
41755;SDS011;27435;48.480;9.258;2022-07-29T14:19:12;3.67;;;2.63;;
41755;SDS011;27435;48.480;9.258;2022-07-29T14:21:38;8.55;;;2.90;;
41755;SDS011;27435;48.480;9.258;2022-07-29T14:24:04;3.60;;;2.58;;
41755;SDS011;27435;48.480;9.258;2022-07-29T14:26:31;3.00;;;2.22;;
41755;SDS011;27435;48.480;9.258;2022-07-29T14:28:56;5.43;;;2.53;;
41755;SDS011;27435;48.480;9.258;2022-07-29T14:31:22;5.90;;;3.00;;
41755;SDS011;27435;48.480;9.258;2022-07-29T14:33:48;4.28;;;2.55;;
41755;SDS011;27435;48.480;9.258;2022-07-29T14:36:13;3.47;;;2.25;;
41755;SDS011;27435;48.480;9.258;2022-07-29T14:38:39;6.10;;;2.35;;
41755;SDS011;27435;48.480;9.258;2022-07-29T14:41:05;6.65;;;2.70;;
41755;SDS011;27435;48.480;9.258;2022-07-29T14:43:32;4.20;;;2.80;;
41755;SDS011;27435;48.480;9.258;2022-07-29T14:45:59;3.60;;;2.50;;
41755;SDS011;27435;48.480;9.258;2022-07-29T14:48:24;3.40;;;2.22;;
41755;SDS011;27435;48.480;9.258;2022-07-29T14:50:50;4.65;;;2.35;;
41755;SDS011;27435;48.480;9.258;2022-07-29T14:53:16;3.70;;;2.28;;
41755;SDS011;27435;48.480;9.258;2022-07-29T14:55:41;4.88;;;2.60;;
41755;SDS011;27435;48.480;9.258;2022-07-29T14:58:07;4.18;;;2.60;;
41755;SDS011;27435;48.480;9.258;2022-07-29T15:00:33;3.83;;;2.45;;
41755;SDS011;27435;48.480;9.258;2022-07-29T15:02:59;7.63;;;2.45;;
41755;SDS011;27435;48.480;9.258;2022-07-29T15:05:26;4.05;;;2.30;;
41755;SDS011;27435;48.480;9.258;2022-07-29T15:07:51;3.60;;;2.30;;
41755;SDS011;27435;48.480;9.258;2022-07-29T15:10:17;3.40;;;2.40;;
41755;SDS011;27435;48.480;9.258;2022-07-29T15:12:43;4.30;;;2.60;;
41755;SDS011;27435;48.480;9.258;2022-07-29T15:15:08;3.08;;;2.30;;
41755;SDS011;27435;48.480;9.258;2022-07-29T15:17:34;4.80;;;3.08;;
41755;SDS011;27435;48.480;9.258;2022-07-29T15:20:00;4.40;;;2.65;;
41755;SDS011;27435;48.480;9.258;2022-07-29T15:22:26;3.58;;;2.72;;
41755;SDS011;27435;48.480;9.258;2022-07-29T15:24:52;4.10;;;2.70;;
41755;SDS011;27435;48.480;9.258;2022-07-29T15:27:18;2.95;;;2.35;;
41755;SDS011;27435;48.480;9.258;2022-07-29T15:29:43;7.03;;;2.72;;
41755;SDS011;27435;48.480;9.258;2022-07-29T15:32:09;3.47;;;2.45;;
41755;SDS011;27435;48.480;9.258;2022-07-29T15:34:36;4.78;;;2.60;;
41755;SDS011;27435;48.480;9.258;2022-07-29T15:37:03;5.30;;;2.55;;
41755;SDS011;27435;48.480;9.258;2022-07-29T15:39:32;7.22;;;3.40;;
41755;SDS011;27435;48.480;9.258;2022-07-29T15:41:57;7.20;;;2.90;;
41755;SDS011;27435;48.480;9.258;2022-07-29T15:44:26;4.65;;;2.53;;
41755;SDS011;27435;48.480;9.258;2022-07-29T15:46:51;4.68;;;2.75;;
41755;SDS011;27435;48.480;9.258;2022-07-29T15:49:35;4.68;;;3.22;;
41755;SDS011;27435;48.480;9.258;2022-07-29T15:52:03;3.35;;;2.30;;
41755;SDS011;27435;48.480;9.258;2022-07-29T15:54:31;6.22;;;2.90;;
41755;SDS011;27435;48.480;9.258;2022-07-29T15:56:58;5.82;;;2.38;;